Time;durP1;ratioP1;P1;durP2;ratioP2;P2;SDS_P1;SDS_P2;PMS_P1;PMS_P2;Temp;Humidity;BMP_temperature;BMP_pressure;BME280_temperature;BME280_humidity;BME280_pressure;Samples;Min_cycle;Max_cycle;Signal;HPM_P1;HPM_P2
2022/05/09 00:01:29;;;;;;;99.23;95.47;;;8.40;99.90;;;;;;5024543;28;20446;-83
2022/05/09 00:04:13;;;;;;;91.77;88.07;;;8.40;99.90;;;;;;5025391;28;20508;-82
2022/05/09 00:06:40;;;;;;;104.93;100.83;;;8.30;99.90;;;;;;5024618;28;20504;-83
2022/05/09 00:09:15;;;;;;;108.10;103.60;;;8.30;99.90;;;;;;5024132;28;21035;-83
2022/05/09 00:11:46;;;;;;;113.07;108.80;;;8.30;99.90;;;;;;5023544;28;20459;-83
2022/05/09 00:14:15;;;;;;;116.43;112.07;;;8.20;99.90;;;;;;5024675;28;20450;-82
2022/05/09 00:16:44;;;;;;;139.23;133.87;;;8.20;99.90;;;;;;5024101;28;20454;-83
2022/05/09 00:19:20;;;;;;;150.07;144.83;;;8.20;99.90;;;;;;5024459;28;20555;-82
2022/05/09 00:21:51;;;;;;;154.83;149.40;;;8.00;99.90;;;;;;5024716;28;20460;-82
2022/05/09 00:24:20;;;;;;;173.13;167.03;;;8.00;99.90;;;;;;5024247;28;20539;-82
2022/05/09 00:26:49;;;;;;;159.37;153.37;;;7.90;99.90;;;;;;5024707;28;20962;-82
2022/05/09 00:29:28;;;;;;;126.80;121.80;;;7.80;99.90;;;;;;5023767;28;20524;-82
2022/05/09 00:32:29;;;;;;;263.20;253.90;;;7.80;99.90;;;;;;5023607;28;20461;-83
2022/05/09 00:35:00;;;;;;;300.77;289.77;;;7.80;99.90;;;;;;5022245;28;20456;-84
2022/05/09 00:37:36;;;;;;;312.10;301.17;;;7.90;99.90;;;;;;5024567;28;20564;-82
2022/05/09 00:40:13;;;;;;;299.57;288.60;;;7.70;99.90;;;;;;5022943;28;20468;-82
2022/05/09 00:42:52;;;;;;;311.27;299.90;;;7.70;99.90;;;;;;5024656;28;20467;-83
2022/05/09 00:45:27;;;;;;;361.53;348.53;;;7.60;99.90;;;;;;5024170;28;20449;-83
2022/05/09 00:48:09;;;;;;;413.73;398.23;;;7.60;99.90;;;;;;5024294;28;20875;-83
2022/05/09 00:51:01;;;;;;;432.17;415.47;;;7.60;99.90;;;;;;5024572;28;20441;-82
2022/05/09 00:53:33;;;;;;;490.37;470.20;;;7.60;99.90;;;;;;5020804;28;20453;-82
2022/05/09 00:56:05;;;;;;;456.23;438.43;;;7.60;99.90;;;;;;5024059;28;20452;-83
2022/05/09 00:58:52;;;;;;;502.50;481.90;;;7.50;99.90;;;;;;5022806;28;20477;-83
2022/05/09 01:01:31;;;;;;;513.63;492.33;;;7.50;99.90;;;;;;5023285;28;20456;-83
2022/05/09 01:04:15;;;;;;;572.83;547.97;;;7.50;99.90;;;;;;5023291;28;20465;-83
2022/05/09 01:06:45;;;;;;;507.97;486.87;;;7.60;99.90;;;;;;5024199;28;20441;-82
2022/05/09 01:09:14;;;;;;;509.33;487.30;;;7.50;99.90;;;;;;5023065;28;20473;-83
2022/05/09 01:11:51;;;;;;;513.07;492.27;;;7.50;99.90;;;;;;5023862;28;20496;-82
2022/05/09 01:14:25;;;;;;;515.87;495.10;;;7.50;99.90;;;;;;5023690;28;20449;-82
2022/05/09 01:16:57;;;;;;;505.37;484.77;;;7.50;99.90;;;;;;5023729;28;20820;-82
2022/05/09 01:19:38;;;;;;;525.93;504.63;;;7.40;99.90;;;;;;5022879;28;20469;-82
2022/05/09 01:22:22;;;;;;;515.83;495.53;;;7.30;99.90;;;;;;5023269;28;20801;-82
2022/05/09 01:25:00;;;;;;;520.37;500.07;;;7.20;99.90;;;;;;5023196;28;20477;-83
2022/05/09 01:27:40;;;;;;;545.73;524.40;;;7.30;99.90;;;;;;5024090;28;20866;-82
2022/05/09 01:30:34;;;;;;;608.30;582.27;;;7.20;99.90;;;;;;5022857;28;20495;-82
2022/05/09 01:33:32;;;;;;;667.73;636.97;;;7.20;99.90;;;;;;5023605;28;20445;-82
2022/05/09 01:36:37;;;;;;;659.57;626.53;;;7.20;99.90;;;;;;5023521;28;20509;-83
2022/05/09 01:39:30;;;;;;;704.20;669.73;;;7.20;99.90;;;;;;5023065;28;20499;-82
2022/05/09 01:42:10;;;;;;;704.67;669.47;;;7.20;99.90;;;;;;5023717;28;20516;-83
2022/05/09 01:44:41;;;;;;;735.30;695.33;;;7.10;99.90;;;;;;5023030;28;20561;-82
2022/05/09 01:49:53;;;;;;;784.83;739.47;;;7.20;99.90;;;;;;5022563;28;20476;-83
2022/05/09 01:52:28;;;;;;;779.13;733.20;;;7.10;99.90;;;;;;5023771;28;20576;-82
2022/05/09 01:55:06;;;;;;;795.73;748.43;;;7.20;99.90;;;;;;5023190;28;21000;-82
2022/05/09 01:57:37;;;;;;;777.70;732.00;;;7.20;99.90;;;;;;5022978;28;20537;-82
2022/05/09 02:00:06;;;;;;;772.37;727.53;;;7.20;99.90;;;;;;5023110;28;20449;-82
2022/05/09 02:05:30;;;;;;;754.53;713.03;;;7.20;99.90;;;;;;5002445;28;20482;-82
2022/05/09 02:08:04;;;;;;;734.83;696.13;;;7.20;99.90;;;;;;5003852;28;20474;-82
2022/05/09 02:10:37;;;;;;;725.30;687.43;;;7.20;99.90;;;;;;5003601;28;20894;-82
2022/05/09 02:13:14;;;;;;;;;;;;;;;;;;;;;
2022/05/09 02:15:49;;;;;;;754.20;714.23;;;7.10;99.90;;;;;;5002822;28;20461;-82
2022/05/09 02:18:26;;;;;;;780.23;735.93;;;7.00;99.90;;;;;;5012052;28;20468;-82
2022/05/09 02:21:07;;;;;;;749.63;709.03;;;7.00;99.90;;;;;;5022231;28;20464;-82
2022/05/09 02:23:50;;;;;;;763.43;721.23;;;7.10;99.90;;;;;;5021854;28;20488;-83
2022/05/09 02:26:50;;;;;;;769.87;727.17;;;7.10;99.90;;;;;;5022076;28;20437;-83
2022/05/09 02:29:46;;;;;;;775.80;732.00;;;7.10;99.90;;;;;;5020038;28;20476;-83
2022/05/09 02:33:08;;;;;;;773.37;731.10;;;7.00;99.90;;;;;;5022214;28;20456;-82
2022/05/09 02:35:40;;;;;;;746.97;708.77;;;7.00;99.90;;;;;;4901697;29;20884;-82
2022/05/09 02:38:07;;;;;;;771.40;729.27;;;7.00;99.90;;;;;;4987367;28;20531;-85
2022/05/09 02:40:34;;;;;;;775.43;732.17;;;6.90;99.90;;;;;;5019203;28;20456;-86
2022/05/09 02:43:03;;;;;;;763.20;722.30;;;6.80;99.90;;;;;;5019177;28;20516;-85
2022/05/09 02:45:30;;;;;;;771.97;729.40;;;6.80;99.90;;;;;;5018658;28;20477;-82
2022/05/09 02:47:58;;;;;;;754.97;715.87;;;6.70;99.90;;;;;;5019670;28;20888;-83
2022/05/09 02:50:26;;;;;;;777.07;735.57;;;6.70;99.90;;;;;;5023196;28;20453;-83
2022/05/09 02:52:55;;;;;;;789.87;745.47;;;6.60;99.90;;;;;;5024246;28;20488;-83
2022/05/09 02:55:22;;;;;;;773.43;732.77;;;6.50;99.90;;;;;;5023513;28;20451;-83
2022/05/09 02:57:50;;;;;;;817.97;770.27;;;6.50;99.90;;;;;;5018545;28;20484;-79
2022/05/09 03:00:20;;;;;;;796.40;752.37;;;6.40;99.90;;;;;;5022552;28;20456;-81
2022/05/09 03:05:30;;;;;;;842.30;791.07;;;6.50;99.90;;;;;;5024928;28;20477;-82
2022/05/09 03:07:56;;;;;;;845.80;793.13;;;6.50;99.90;;;;;;5025590;28;20483;-83
2022/05/09 03:10:28;;;;;;;824.93;775.30;;;6.60;99.90;;;;;;5024862;28;20453;-83
2022/05/09 03:12:59;;;;;;;826.30;776.67;;;6.50;99.90;;;;;;5024793;28;20441;-82
2022/05/09 03:15:34;;;;;;;834.73;783.57;;;6.50;99.90;;;;;;5026284;28;20438;-83
2022/05/09 03:18:04;;;;;;;835.37;783.20;;;6.40;99.90;;;;;;5025810;28;20483;-84
2022/05/09 03:21:02;;;;;;;834.57;784.57;;;6.50;99.90;;;;;;5023593;28;20477;-83
2022/05/09 03:23:29;;;;;;;839.63;789.77;;;6.40;99.90;;;;;;5005375;28;20862;-81
2022/05/09 03:25:56;;;;;;;844.87;792.30;;;6.30;99.90;;;;;;5003403;28;20545;-82
2022/05/09 03:28:25;;;;;;;831.37;782.07;;;6.40;99.90;;;;;;5024712;28;20473;-82
2022/05/09 03:30:56;;;;;;;831.23;782.27;;;6.30;99.90;;;;;;5026153;28;20456;-82
2022/05/09 03:33:24;;;;;;;828.43;780.93;;;6.30;99.90;;;;;;5024112;28;20453;-84
2022/05/09 03:35:52;;;;;;;819.03;772.57;;;6.20;99.90;;;;;;5023904;28;20989;-84
2022/05/09 03:38:19;;;;;;;831.77;784.80;;;6.20;99.90;;;;;;5021417;28;20539;-83
2022/05/09 03:40:46;;;;;;;845.87;794.67;;;6.20;99.90;;;;;;5024364;28;20463;-82
2022/05/09 03:43:13;;;;;;;857.37;805.50;;;6.20;99.90;;;;;;5025268;28;20449;-82
2022/05/09 03:45:44;;;;;;;860.93;809.73;;;6.20;99.90;;;;;;5023362;28;20477;-82
2022/05/09 03:48:13;;;;;;;837.30;789.37;;;6.10;99.90;;;;;;5022715;28;20569;-83
2022/05/09 03:50:48;;;;;;;836.73;788.73;;;6.10;99.90;;;;;;5025884;28;20457;-84
2022/05/09 03:53:15;;;;;;;807.73;764.23;;;6.10;99.90;;;;;;5025641;28;20442;-82
2022/05/09 03:55:44;;;;;;;802.83;759.83;;;6.00;99.90;;;;;;5024554;28;20453;-82
2022/05/09 03:58:11;;;;;;;832.00;784.87;;;6.00;99.90;;;;;;5023798;28;20469;-82
2022/05/09 04:00:52;;;;;;;855.20;805.80;;;6.00;99.90;;;;;;5025523;28;20894;-82
2022/05/09 04:03:20;;;;;;;849.63;797.27;;;6.00;99.90;;;;;;5023478;28;20453;-82
2022/05/09 04:05:48;;;;;;;852.93;801.63;;;6.00;99.90;;;;;;5024607;28;20477;-82
2022/05/09 04:08:17;;;;;;;837.33;788.23;;;6.10;99.90;;;;;;5023064;28;20993;-81
2022/05/09 04:10:45;;;;;;;766.37;724.97;;;6.10;99.90;;;;;;5023597;28;20445;-82
2022/05/09 04:13:12;;;;;;;731.00;694.90;;;6.10;99.90;;;;;;5023913;28;20481;-83
2022/05/09 04:18:28;;;;;;;720.90;684.60;;;6.10;99.90;;;;;;5018883;28;20468;-83
2022/05/09 04:20:55;;;;;;;746.47;708.27;;;6.20;99.90;;;;;;5022879;28;20475;-79
2022/05/09 04:23:22;;;;;;;731.57;694.80;;;6.20;99.90;;;;;;5023177;28;20449;-82
2022/05/09 04:25:49;;;;;;;789.43;746.70;;;6.30;99.90;;;;;;5021931;28;20469;-83
2022/05/09 04:28:18;;;;;;;785.70;741.33;;;6.30;99.90;;;;;;5022992;28;20898;-82
2022/05/09 04:30:45;;;;;;;783.90;738.20;;;6.40;99.90;;;;;;5022812;28;20465;-82
2022/05/09 04:33:12;;;;;;;775.37;730.77;;;6.50;99.90;;;;;;5021846;28;20453;-82
2022/05/09 04:35:42;;;;;;;786.63;741.10;;;6.60;99.90;;;;;;5021734;28;20451;-82
2022/05/09 04:38:14;;;;;;;773.97;729.57;;;6.70;99.90;;;;;;5022017;28;20546;-82
2022/05/09 04:40:41;;;;;;;754.47;713.47;;;6.70;99.90;;;;;;5018184;28;20449;-82
2022/05/09 04:43:08;;;;;;;774.40;732.90;;;6.70;99.90;;;;;;5019246;28;20529;-81
2022/05/09 04:45:35;;;;;;;756.83;715.77;;;6.80;99.90;;;;;;5017888;28;21040;-82
2022/05/09 04:48:03;;;;;;;779.17;737.53;;;6.90;99.90;;;;;;5018171;28;20480;-82
2022/05/09 04:50:32;;;;;;;758.27;718.27;;;7.00;99.90;;;;;;5018584;28;20463;-82
2022/05/09 04:53:00;;;;;;;765.67;725.17;;;7.00;99.90;;;;;;5018743;28;20865;-82
2022/05/09 04:55:27;;;;;;;753.40;714.43;;;7.10;99.90;;;;;;5020010;28;20484;-80
2022/05/09 04:57:54;;;;;;;777.97;735.67;;;7.20;99.90;;;;;;5019359;28;20483;-83
2022/05/09 05:00:24;;;;;;;775.27;733.30;;;7.20;99.90;;;;;;5021497;28;20457;-83
2022/05/09 05:02:51;;;;;;;753.90;713.40;;;7.40;99.90;;;;;;5019549;28;20946;-85
2022/05/09 05:05:18;;;;;;;715.00;678.97;;;7.50;99.90;;;;;;5020574;28;20451;-84
2022/05/09 05:07:45;;;;;;;691.20;657.30;;;7.50;99.90;;;;;;5020314;28;20473;-84
2022/05/09 05:10:14;;;;;;;706.33;671.47;;;7.70;99.90;;;;;;5021515;28;20460;-84
2022/05/09 05:12:41;;;;;;;703.13;668.20;;;7.80;99.90;;;;;;5021455;28;20463;-84
2022/05/09 05:15:09;;;;;;;676.57;644.50;;;7.90;99.90;;;;;;5020448;28;20477;-84
2022/05/09 05:17:37;;;;;;;597.03;570.53;;;8.00;99.90;;;;;;5020643;28;20481;-84
2022/05/09 05:20:08;;;;;;;527.63;506.07;;;8.20;99.90;;;;;;5018969;28;20449;-83
2022/05/09 05:22:37;;;;;;;445.40;428.00;;;8.30;99.90;;;;;;5020199;28;20457;-84
2022/05/09 05:25:04;;;;;;;500.77;480.73;;;8.40;99.90;;;;;;5018071;28;20540;-84
2022/05/09 05:27:32;;;;;;;410.17;394.93;;;8.60;99.90;;;;;;5015569;28;20473;-84
2022/05/09 05:29:59;;;;;;;178.90;172.27;;;8.90;99.90;;;;;;5018524;28;20453;-82
2022/05/09 05:32:31;;;;;;;144.50;138.63;;;9.00;99.90;;;;;;5019372;28;20532;-81
2022/05/09 05:34:58;;;;;;;85.00;81.30;;;9.20;99.90;;;;;;5018348;28;20461;-80
2022/05/09 05:37:25;;;;;;;75.43;72.13;;;9.30;99.90;;;;;;5017745;28;20838;-81
2022/05/09 05:39:52;;;;;;;87.83;84.43;;;9.50;99.90;;;;;;5023874;23;20494;-81
2022/05/09 05:42:20;;;;;;;18.97;17.30;;;10.00;99.90;;;;;;4996603;28;20970;-82
2022/05/09 05:44:49;;;;;;;13.80;8.70;;;10.50;99.90;;;;;;4996413;28;20446;-81
2022/05/09 05:47:18;;;;;;;9.03;6.57;;;11.10;99.90;;;;;;4997921;28;20456;-81
2022/05/09 05:49:45;;;;;;;10.30;5.53;;;11.60;99.90;;;;;;4995479;28;20469;-81
2022/05/09 05:52:14;;;;;;;12.43;5.40;;;11.80;94.90;;;;;;4996395;28;20923;-82
2022/05/09 05:54:43;;;;;;;9.80;6.27;;;12.20;91.90;;;;;;4995989;28;20484;-81
2022/05/09 05:57:17;;;;;;;9.70;5.20;;;12.50;86.40;;;;;;4994399;28;20457;-82
2022/05/09 05:59:50;;;;;;;9.97;6.30;;;13.00;79.70;;;;;;4995362;28;20476;-81
2022/05/09 06:02:17;;;;;;;11.10;5.27;;;13.70;77.80;;;;;;4995313;28;20454;-81
2022/05/09 06:04:44;;;;;;;14.57;5.10;;;14.20;73.80;;;;;;4989902;28;20898;-81
2022/05/09 06:07:12;;;;;;;7.90;4.37;;;14.40;69.50;;;;;;4995530;28;20444;-82
2022/05/09 06:09:39;;;;;;;8.40;4.10;;;15.00;58.90;;;;;;4998360;28;20471;-82
2022/05/09 06:12:07;;;;;;;8.97;4.57;;;15.50;59.00;;;;;;4999899;28;20454;-82
2022/05/09 06:14:33;;;;;;;7.00;4.17;;;16.00;50.40;;;;;;5001011;28;20806;-81
2022/05/09 06:17:02;;;;;;;9.63;4.23;;;16.20;49.70;;;;;;5001067;28;20464;-82
2022/05/09 06:19:28;;;;;;;7.60;4.43;;;16.50;44.80;;;;;;4998903;28;20533;-82
2022/05/09 06:21:56;;;;;;;9.60;5.27;;;16.80;46.50;;;;;;5000768;28;20457;-82
2022/05/09 06:24:22;;;;;;;8.70;4.50;;;17.10;41.70;;;;;;4997139;28;20452;-82
2022/05/09 06:26:50;;;;;;;9.37;4.30;;;17.10;44.00;;;;;;4995344;28;20450;-82
2022/05/09 06:29:18;;;;;;;8.60;4.50;;;17.30;36.80;;;;;;4995692;28;20478;-82
2022/05/09 06:31:45;;;;;;;10.50;3.63;;;17.70;36.90;;;;;;4994814;28;20478;-82
2022/05/09 06:34:14;;;;;;;7.63;3.73;;;17.70;35.80;;;;;;4996135;28;20462;-82
2022/05/09 06:36:43;;;;;;;7.13;3.47;;;17.80;32.10;;;;;;4995831;28;20481;-82
2022/05/09 06:39:11;;;;;;;6.90;4.13;;;17.80;33.80;;;;;;4994369;28;20480;-80
2022/05/09 06:41:38;;;;;;;5.80;2.93;;;18.00;33.40;;;;;;4995432;28;20451;-81
2022/05/09 06:44:05;;;;;;;8.97;3.07;;;17.80;32.20;;;;;;4995070;28;20978;-81
2022/05/09 06:46:34;;;;;;;7.27;3.33;;;18.00;32.80;;;;;;4998423;28;20458;-83
2022/05/09 06:49:02;;;;;;;7.60;3.87;;;18.20;31.60;;;;;;5000442;28;20479;-81
2022/05/09 06:51:30;;;;;;;6.80;3.50;;;18.00;30.20;;;;;;5000372;28;20451;-81
2022/05/09 06:53:57;;;;;;;9.33;3.63;;;18.20;31.90;;;;;;4997996;28;20464;-80
2022/05/09 06:56:23;;;;;;;9.23;3.87;;;18.50;34.20;;;;;;4995311;28;20942;-81
2022/05/09 06:58:50;;;;;;;10.03;4.37;;;18.40;31.70;;;;;;4995518;28;20478;-79
2022/05/09 07:01:19;;;;;;;7.57;4.00;;;18.50;31.20;;;;;;4992681;28;20470;-83
2022/05/09 07:03:47;;;;;;;9.63;3.93;;;18.20;30.40;;;;;;4995007;28;20485;-81
2022/05/09 07:06:15;;;;;;;7.57;3.50;;;18.10;30.00;;;;;;4997617;28;20454;-80
2022/05/09 07:08:44;;;;;;;7.40;3.67;;;18.30;32.30;;;;;;4993967;28;20521;-82
2022/05/09 07:11:12;;;;;;;7.27;4.20;;;18.00;32.20;;;;;;4994223;28;20463;-83
2022/05/09 07:13:39;;;;;;;6.30;3.70;;;17.80;33.20;;;;;;4997676;28;20521;-83
2022/05/09 07:16:08;;;;;;;9.33;4.20;;;17.70;33.10;;;;;;4996125;28;20477;-82
2022/05/09 07:18:36;;;;;;;8.03;4.87;;;17.40;35.10;;;;;;4995167;28;21073;-81
2022/05/09 07:21:03;;;;;;;8.30;4.80;;;17.10;37.20;;;;;;4994627;28;20554;-82
2022/05/09 07:23:29;;;;;;;7.40;4.40;;;16.80;37.80;;;;;;4994741;28;20459;-81
2022/05/09 07:25:58;;;;;;;7.40;3.90;;;16.80;38.20;;;;;;4996335;28;20449;-81
2022/05/09 07:28:28;;;;;;;7.93;4.97;;;16.90;39.90;;;;;;4997578;28;20504;-81
2022/05/09 07:30:54;;;;;;;7.43;4.60;;;16.80;39.90;;;;;;4999427;28;20453;-80
2022/05/09 07:33:22;;;;;;;9.53;3.73;;;16.80;41.40;;;;;;4997071;28;20478;-80
2022/05/09 07:35:49;;;;;;;12.20;5.13;;;16.80;42.90;;;;;;4995822;28;21012;-80
2022/05/09 07:38:16;;;;;;;9.90;5.20;;;16.70;41.30;;;;;;4996131;28;20475;-82
2022/05/09 07:40:44;;;;;;;12.07;5.00;;;16.80;42.90;;;;;;4997411;28;20459;-81
2022/05/09 07:43:15;;;;;;;10.07;4.57;;;16.80;43.00;;;;;;4996261;28;20462;-81
2022/05/09 07:45:43;;;;;;;11.23;5.10;;;16.90;41.40;;;;;;4997046;28;20864;-82
2022/05/09 07:48:10;;;;;;;9.40;5.20;;;17.00;43.80;;;;;;4997273;28;20483;-81
2022/05/09 07:50:38;;;;;;;13.00;4.33;;;17.00;42.40;;;;;;4998367;28;20499;-81
2022/05/09 07:53:07;;;;;;;8.60;3.97;;;17.00;40.10;;;;;;4997312;28;20466;-82
2022/05/09 07:55:34;;;;;;;11.03;5.33;;;17.00;39.60;;;;;;4996348;28;20478;-82
2022/05/09 07:58:00;;;;;;;9.13;4.47;;;17.10;43.50;;;;;;4996072;28;20810;-81
2022/05/09 08:00:28;;;;;;;9.10;4.53;;;17.20;41.70;;;;;;4995951;28;20463;-81
2022/05/09 08:02:55;;;;;;;6.83;3.90;;;17.60;39.60;;;;;;4997640;28;20826;-82
2022/05/09 08:05:22;;;;;;;9.07;5.07;;;18.00;38.50;;;;;;4996881;28;20458;-82
2022/05/09 08:07:49;;;;;;;9.70;4.33;;;18.70;34.50;;;;;;4994681;28;20461;-80
2022/05/09 08:10:16;;;;;;;9.90;4.20;;;19.30;34.60;;;;;;4994185;28;20465;-85
2022/05/09 08:12:43;;;;;;;15.27;4.37;;;19.80;29.90;;;;;;4994253;28;20454;-80
2022/05/09 08:15:13;;;;;;;9.03;4.33;;;19.90;27.30;;;;;;4994774;28;20460;-80
2022/05/09 08:17:43;;;;;;;6.47;3.30;;;20.30;27.20;;;;;;4994493;28;20469;-80
2022/05/09 08:20:12;;;;;;;10.13;3.73;;;20.60;28.30;;;;;;4993488;28;20551;-80
2022/05/09 08:22:40;;;;;;;7.50;3.53;;;21.00;24.90;;;;;;4992507;28;20969;-80
2022/05/09 08:25:08;;;;;;;8.17;3.33;;;21.30;24.70;;;;;;4994510;28;20553;-80
2022/05/09 08:27:36;;;;;;;11.23;3.40;;;21.80;21.00;;;;;;4994360;28;20836;-80
2022/05/09 08:30:04;;;;;;;6.27;2.53;;;21.80;18.90;;;;;;4993540;28;20477;-80
2022/05/09 08:32:31;;;;;;;8.87;4.40;;;22.00;16.20;;;;;;4993983;28;20456;-80
2022/05/09 08:34:59;;;;;;;5.90;2.60;;;22.10;18.30;;;;;;4995603;28;20486;-80
2022/05/09 08:37:26;;;;;;;10.70;3.10;;;21.80;15.40;;;;;;4994878;28;20483;-80
2022/05/09 08:39:53;;;;;;;7.50;3.37;;;22.10;17.50;;;;;;4993425;28;20486;-80
2022/05/09 08:42:24;;;;;;;9.03;2.97;;;22.30;16.00;;;;;;4994501;28;20466;-80
2022/05/09 08:45:16;;;;;;;7.80;3.10;;;22.30;16.60;;;;;;4994223;28;20465;-80
2022/05/09 08:47:57;;;;;;;8.97;3.70;;;22.80;16.80;;;;;;4994838;28;20462;-80
2022/05/09 08:50:33;;;;;;;9.47;3.60;;;22.80;14.70;;;;;;4994402;28;20465;-80
2022/05/09 08:53:01;;;;;;;8.03;2.97;;;22.50;14.00;;;;;;4994585;28;20764;-80
2022/05/09 08:55:33;;;;;;;6.77;3.63;;;22.90;14.50;;;;;;4993616;28;20764;-80
2022/05/09 08:58:10;;;;;;;7.87;3.43;;;23.10;14.60;;;;;;4993807;28;20452;-80
2022/05/09 09:00:39;;;;;;;9.73;3.80;;;23.60;13.70;;;;;;4994051;28;20467;-80
2022/05/09 09:03:15;;;;;;;7.60;3.33;;;24.00;12.90;;;;;;4994663;28;20477;-81
2022/05/09 09:05:48;;;;;;;13.10;4.07;;;24.10;8.90;;;;;;4994236;28;20945;-80
2022/05/09 09:08:21;;;;;;;7.77;3.37;;;23.70;10.60;;;;;;4993493;28;20856;-80
2022/05/09 09:10:56;;;;;;;7.87;3.53;;;23.80;11.40;;;;;;4993263;28;20457;-80
2022/05/09 09:13:35;;;;;;;7.47;3.90;;;24.20;10.10;;;;;;4993593;28;20464;-80
2022/05/09 09:16:15;;;;;;;7.63;4.50;;;24.70;9.00;;;;;;4993712;28;20462;-80
2022/05/09 09:18:56;;;;;;;10.03;4.10;;;25.00;8.90;;;;;;4992716;28;20485;-80
2022/05/09 09:21:32;;;;;;;7.70;4.10;;;25.40;7.30;;;;;;4993336;28;20516;-80
2022/05/09 09:24:14;;;;;;;7.70;3.73;;;25.30;5.70;;;;;;4992650;28;20457;-80
2022/05/09 09:26:54;;;;;;;10.43;5.60;;;25.00;5.80;;;;;;4993395;28;20481;-80
2022/05/09 09:29:26;;;;;;;8.30;4.50;;;25.40;7.10;;;;;;4993680;28;20493;-80
2022/05/09 09:31:58;;;;;;;11.07;5.17;;;24.70;3.60;;;;;;4993314;28;21025;-80
2022/05/09 09:34:31;;;;;;;8.17;4.77;;;25.00;7.80;;;;;;4992941;28;20464;-80
2022/05/09 09:37:09;;;;;;;11.20;5.27;;;25.50;5.90;;;;;;4993963;28;20457;-83
2022/05/09 09:39:36;;;;;;;9.70;5.30;;;25.90;5.40;;;;;;4990262;28;20456;-84
2022/05/09 09:42:03;;;;;;;7.60;4.50;;;26.40;3.50;;;;;;4993001;28;20206;-85
2022/05/09 09:44:34;;;;;;;8.13;4.70;;;26.70;1.70;;;;;;4991145;28;20849;-85
2022/05/09 09:47:21;;;;;;;7.27;4.13;;;26.50;1.10;;;;;;4993072;28;20841;-86
2022/05/09 09:49:50;;;;;;;8.53;4.50;;;27.30;1.00;;;;;;4993103;28;20528;-84
2022/05/09 09:52:21;;;;;;;6.63;4.10;;;27.30;1.00;;;;;;4998986;28;20520;-86
2022/05/09 09:55:00;;;;;;;9.57;5.10;;;26.30;1.00;;;;;;4994753;28;20481;-86
2022/05/09 09:57:29;;;;;;;12.60;4.73;;;27.20;1.80;;;;;;4993599;28;20457;-85
2022/05/09 09:59:58;;;;;;;9.03;5.17;;;27.00;1.00;;;;;;4998641;28;20482;-84
2022/05/09 10:02:57;;;;;;;8.00;4.23;;;27.60;1.00;;;;;;5001246;28;20493;-83
2022/05/09 10:05:56;;;;;;;9.67;5.70;;;28.20;1.00;;;;;;4996138;28;20456;-86
2022/05/09 10:08:52;;;;;;;12.50;5.37;;;28.40;1.00;;;;;;5000058;28;20478;-83
2022/05/09 10:14:58;;;;;;;6.47;4.23;;;27.60;1.00;;;;;;4958829;28;20455;-84
2022/05/09 10:26:34;;;;;;;8.85;5.40;;;29.60;1.00;;;;;;4996844;28;20477;-83
2022/05/09 10:29:06;;;;;;;10.90;5.60;;;29.80;1.00;;;;;;4998169;28;20218;-83
2022/05/09 10:31:42;;;;;;;8.13;5.53;;;28.80;1.00;;;;;;4998407;28;20443;-83
2022/05/09 10:34:14;;;;;;;8.17;5.57;;;29.60;1.00;;;;;;4998643;28;20434;-82
2022/05/09 10:36:47;;;;;;;7.47;5.37;;;30.20;1.00;;;;;;4998324;28;20460;-83
2022/05/09 10:39:20;;;;;;;13.30;5.87;;;29.60;1.00;;;;;;4997509;28;20513;-83
2022/05/09 10:41:52;;;;;;;8.73;5.10;;;29.50;1.00;;;;;;4995385;28;20437;-83
2022/05/09 10:44:27;;;;;;;6.97;4.80;;;30.00;1.00;;;;;;4997361;28;20481;-83
2022/05/09 10:47:00;;;;;;;6.57;4.67;;;30.80;1.00;;;;;;4993824;28;20453;-83
2022/05/09 10:49:35;;;;;;;10.07;4.97;;;30.40;1.00;;;;;;4991261;28;20485;-82
2022/05/09 10:52:16;;;;;;;7.20;4.33;;;30.70;1.00;;;;;;4992210;28;20453;-82
2022/05/09 10:54:49;;;;;;;8.13;4.70;;;30.60;1.00;;;;;;4992450;28;20468;-83
2022/05/09 10:57:22;;;;;;;8.00;5.87;;;30.60;1.00;;;;;;4995769;28;20448;-83
2022/05/09 10:59:50;;;;;;;8.93;4.60;;;30.90;1.00;;;;;;4994908;28;21002;-82
2022/05/09 11:02:23;;;;;;;9.10;5.20;;;30.90;1.00;;;;;;4997113;28;20480;-83
2022/05/09 11:04:49;;;;;;;8.57;5.47;;;30.70;1.00;;;;;;4993904;28;20432;-83
2022/05/09 11:07:25;;;;;;;15.50;4.73;;;31.50;1.00;;;;;;4995620;28;20435;-83
2022/05/09 11:10:11;;;;;;;8.43;4.63;;;31.10;1.00;;;;;;4994564;28;20463;-82
2022/05/09 11:12:57;;;;;;;9.03;4.47;;;31.00;1.00;;;;;;4995643;28;20427;-82
2022/05/09 11:15:32;;;;;;;11.00;4.90;;;31.00;1.00;;;;;;4995556;28;20461;-83
2022/05/09 11:18:25;;;;;;;7.57;4.50;;;31.20;1.00;;;;;;4995465;28;20479;-83
2022/05/09 11:20:57;;;;;;;6.90;4.27;;;30.30;1.00;;;;;;4993171;28;20445;-83
2022/05/09 11:23:32;;;;;;;8.77;4.33;;;30.70;1.00;;;;;;4995364;28;20464;-83
2022/05/09 11:26:13;;;;;;;15.20;5.10;;;31.50;1.00;;;;;;4995234;28;20454;-83
2022/05/09 11:29:01;;;;;;;8.70;5.07;;;31.60;1.00;;;;;;4994209;28;20482;-83
2022/05/09 11:31:41;;;;;;;8.50;5.33;;;30.90;1.00;;;;;;4993405;28;20465;-83
2022/05/09 11:34:22;;;;;;;8.83;4.30;;;32.10;1.00;;;;;;4995510;28;20485;-83
2022/05/09 11:37:02;;;;;;;7.97;4.80;;;32.50;1.00;;;;;;4995097;28;20481;-83
2022/05/09 11:39:39;;;;;;;6.50;3.80;;;32.40;1.00;;;;;;5019709;23;20496;-82
2022/05/09 11:45:17;;;;;;;8.20;4.00;;;33.10;1.00;;;;;;4999039;28;20918;-82
2022/05/09 11:47:55;;;;;;;8.13;4.30;;;33.50;1.00;;;;;;4998950;28;20432;-82
2022/05/09 11:50:28;;;;;;;7.90;3.43;;;33.40;1.00;;;;;;4997765;28;20965;-82
2022/05/09 11:52:58;;;;;;;8.20;4.00;;;33.30;1.00;;;;;;4998710;28;20454;-82
2022/05/09 11:55:27;;;;;;;9.57;4.97;;;32.70;1.00;;;;;;4998381;28;20465;-82
2022/05/09 11:57:58;;;;;;;7.97;4.93;;;31.00;1.00;;;;;;4997900;28;20460;-82
2022/05/09 12:00:51;;;;;;;9.80;4.57;;;32.10;1.00;;;;;;4997715;28;20482;-82
2022/05/09 12:04:00;;;;;;;8.63;4.80;;;32.70;1.00;;;;;;4998272;28;20461;-82
2022/05/09 12:06:44;;;;;;;8.10;4.40;;;33.30;1.00;;;;;;4998008;28;20959;-82
2022/05/09 12:09:15;;;;;;;6.70;4.30;;;33.80;1.00;;;;;;4998121;28;20448;-82
2022/05/09 12:11:53;;;;;;;6.40;4.00;;;33.90;1.00;;;;;;4997702;28;20465;-82
2022/05/09 12:14:52;;;;;;;11.83;5.00;;;33.70;1.00;;;;;;4998412;28;20432;-82
2022/05/09 12:17:22;;;;;;;6.40;4.40;;;32.80;1.00;;;;;;4997650;28;20474;-82
2022/05/09 12:19:50;;;;;;;10.47;6.07;;;33.40;1.00;;;;;;4997346;28;20482;-82
2022/05/09 12:22:47;;;;;;;9.50;4.87;;;33.00;1.00;;;;;;4998399;28;20544;-82
2022/05/09 12:26:00;;;;;;;7.50;4.73;;;34.40;1.00;;;;;;4998019;28;20454;-83
2022/05/09 12:28:30;;;;;;;8.00;4.87;;;34.30;1.00;;;;;;4997488;28;20480;-83
2022/05/09 12:30:59;;;;;;;8.17;5.13;;;34.20;1.00;;;;;;4998415;28;20428;-82
2022/05/09 12:33:35;;;;;;;8.97;5.37;;;33.90;1.00;;;;;;4998214;28;20837;-83
2022/05/09 12:36:05;;;;;;;8.40;4.80;;;33.70;1.00;;;;;;4998526;28;20439;-82
2022/05/09 12:38:35;;;;;;;6.87;4.37;;;33.80;1.00;;;;;;4997376;28;21005;-82
2022/05/09 12:41:08;;;;;;;7.37;4.70;;;34.70;1.00;;;;;;5008945;28;20440;-82
2022/05/09 12:43:37;;;;;;;7.47;4.67;;;32.90;1.00;;;;;;5002878;28;20429;-82
2022/05/09 12:46:08;;;;;;;8.10;4.80;;;32.30;1.00;;;;;;5001774;28;20450;-82
2022/05/09 12:48:38;;;;;;;6.87;4.33;;;31.70;1.00;;;;;;5001030;28;20448;-81
2022/05/09 12:51:08;;;;;;;6.83;4.27;;;33.10;1.00;;;;;;4997832;28;20432;-82
2022/05/09 12:53:36;;;;;;;7.90;5.20;;;34.20;1.00;;;;;;4997804;28;20457;-82
2022/05/09 12:56:11;;;;;;;10.33;4.60;;;33.50;1.00;;;;;;4997803;28;20434;-82
2022/05/09 12:58:40;;;;;;;8.63;4.70;;;31.70;1.00;;;;;;4996789;28;20488;-80
2022/05/09 13:01:11;;;;;;;10.43;5.13;;;31.10;1.00;;;;;;4997108;28;20978;-82
2022/05/09 13:03:46;;;;;;;8.53;5.13;;;30.20;1.00;;;;;;4996160;28;20433;-81
2022/05/09 13:06:15;;;;;;;7.17;4.43;;;30.10;1.00;;;;;;4997606;28;20461;-82
2022/05/09 13:08:43;;;;;;;8.23;5.37;;;30.70;1.00;;;;;;4996646;28;20455;-82
2022/05/09 13:11:14;;;;;;;9.47;5.40;;;30.40;1.00;;;;;;4997704;28;20468;-82
2022/05/09 13:13:46;;;;;;;10.43;5.90;;;29.00;1.00;;;;;;4997494;28;20507;-82
2022/05/09 13:16:22;;;;;;;9.97;6.50;;;28.40;1.00;;;;;;4998177;28;20523;-82
2022/05/09 13:18:50;;;;;;;9.50;4.83;;;27.50;1.00;;;;;;4996403;28;20481;-82
2022/05/09 13:21:23;;;;;;;8.77;5.30;;;27.30;1.00;;;;;;4996819;28;20454;-82
2022/05/09 13:23:50;;;;;;;10.63;6.25;;;27.50;1.00;;;;;;4997248;28;20460;-79
2022/05/09 13:26:20;;;;;;;7.37;4.30;;;27.30;1.00;;;;;;4997676;28;20258;-82
2022/05/09 13:28:49;;;;;;;11.73;5.80;;;27.60;1.00;;;;;;4999693;28;20481;-82
2022/05/09 13:31:32;;;;;;;12.70;6.37;;;27.30;1.00;;;;;;5000253;28;20450;-82
2022/05/09 13:34:00;;;;;;;9.70;6.00;;;27.00;1.00;;;;;;5000605;28;20512;-81